Aviation Digital Data Service (ADDS)

Output produced by METARs form (1351 UTC 13 December 2019)
found at http://www.aviationweather.gov/metar/data/
 
METAR text: RJFO 131300Z 26004KT 9999 FEW050 06/03 Q1025
Conditions at: RJFO (OITA AIRPORT , JP) observed 1300 UTC 13 December 2019
Temperature: 6.0°C (43°F)
Dewpoint: 3.0°C (37°F) [RH = 81%]
Pressure (altimeter): 30.27 inches Hg (1025.0 mb)
Winds: from the W (260 degrees) at 5 MPH (4 knots; 2.1 m/s)
Visibility: 6 or more miles (10+ km)
Ceiling: at least 12,000 feet AGL
Clouds: few clouds at 5000 feet AGL
Weather: no significant weather observed at this time

METAR text: RJFO 131200Z 25003KT 9999 FEW050 SCT/// 06/03 Q1025
Conditions at: RJFO (OITA AIRPORT , JP) observed 1200 UTC 13 December 2019
Temperature: 6.0°C (43°F)
Dewpoint: 3.0°C (37°F) [RH = 81%]
Pressure (altimeter): 30.27 inches Hg (1025.0 mb)
Winds: from the WSW (250 degrees) at 3 MPH (3 knots; 1.5 m/s)
Visibility: 6 or more miles (10+ km)
Ceiling: at least 12,000 feet AGL
Clouds: few clouds at 5000 feet AGL
Weather: no significant weather observed at this time

METAR text: RJFO 131100Z 27003KT 230V300 9999 FEW050 SCT170 BKN/// 07/04 Q1025
Conditions at: RJFO (OITA AIRPORT , JP) observed 1100 UTC 13 December 2019
Temperature: 7.0°C (45°F)
Dewpoint: 4.0°C (39°F) [RH = 81%]
Pressure (altimeter): 30.27 inches Hg (1025.0 mb)
Winds: from the W (270 degrees) at 3 MPH (3 knots; 1.5 m/s)
Visibility: 6 or more miles (10+ km)
Ceiling: at least 12,000 feet AGL
Clouds: few clouds at 5000 feet AGL
scattered clouds at 17000 feet AGL
Weather: no significant weather observed at this time

METAR text: RJFO 131000Z 25003KT CAVOK 08/04 Q1025
Conditions at: RJFO (OITA AIRPORT , JP) observed 1000 UTC 13 December 2019
Temperature: 8.0°C (46°F)
Dewpoint: 4.0°C (39°F) [RH = 76%]
Pressure (altimeter): 30.27 inches Hg (1025.0 mb)
Winds: from the WSW (250 degrees) at 3 MPH (3 knots; 1.5 m/s)
Visibility: 6 or more miles (10+ km)
Ceiling: ceiling and visibility are OK
Clouds: unknown
Weather: no significant weather observed at this time

METAR text: RJFO 130900Z 27002KT CAVOK 09/04 Q1025
Conditions at: RJFO (OITA AIRPORT , JP) observed 0900 UTC 13 December 2019
Temperature: 9.0°C (48°F)
Dewpoint: 4.0°C (39°F) [RH = 71%]
Pressure (altimeter): 30.27 inches Hg (1025.0 mb)
Winds: from the W (270 degrees) at 2 MPH (2 knots; 1.0 m/s)
Visibility: 6 or more miles (10+ km)
Ceiling: ceiling and visibility are OK
Clouds: unknown
Weather: no significant weather observed at this time

METAR text: RJFO 130800Z 35005KT CAVOK 11/04 Q1025
Conditions at: RJFO (OITA AIRPORT , JP) observed 0800 UTC 13 December 2019
Temperature: 11.0°C (52°F)
Dewpoint: 4.0°C (39°F) [RH = 62%]
Pressure (altimeter): 30.27 inches Hg (1025.0 mb)
Winds: from the N (350 degrees) at 6 MPH (5 knots; 2.6 m/s)
Visibility: 6 or more miles (10+ km)
Ceiling: ceiling and visibility are OK
Clouds: unknown
Weather: no significant weather observed at this time

METAR text: RJFO 130700Z 03002KT CAVOK 11/02 Q1025
Conditions at: RJFO (OITA AIRPORT , JP) observed 0700 UTC 13 December 2019
Temperature: 11.0°C (52°F)
Dewpoint: 2.0°C (36°F) [RH = 54%]
Pressure (altimeter): 30.27 inches Hg (1025.0 mb)
Winds: from the NNE (30 degrees) at 2 MPH (2 knots; 1.0 m/s)
Visibility: 6 or more miles (10+ km)
Ceiling: ceiling and visibility are OK
Clouds: unknown
Weather: no significant weather observed at this time

METAR text: RJFO 130600Z 06003KT 010V110 CAVOK 12/02 Q1025
Conditions at: RJFO (OITA AIRPORT , JP) observed 0600 UTC 13 December 2019
Temperature: 12.0°C (54°F)
Dewpoint: 2.0°C (36°F) [RH = 50%]
Pressure (altimeter): 30.27 inches Hg (1025.0 mb)
Winds: from the ENE (60 degrees) at 3 MPH (3 knots; 1.5 m/s)
Visibility: 6 or more miles (10+ km)
Ceiling: ceiling and visibility are OK
Clouds: unknown
Weather: no significant weather observed at this time

METAR text: RJFO 130500Z 10003KT 050V190 9999 FEW040 BKN/// 11/02 Q1025
Conditions at: RJFO (OITA AIRPORT , JP) observed 0500 UTC 13 December 2019
Temperature: 11.0°C (52°F)
Dewpoint: 2.0°C (36°F) [RH = 54%]
Pressure (altimeter): 30.27 inches Hg (1025.0 mb)
Winds: from the E (100 degrees) at 3 MPH (3 knots; 1.5 m/s)
Visibility: 6 or more miles (10+ km)
Ceiling: at least 12,000 feet AGL
Clouds: few clouds at 4000 feet AGL
Weather: no significant weather observed at this time

METAR text: RJFO 130400Z 08004KT 050V130 9999 FEW030 BKN/// 11/02 Q1026
Conditions at: RJFO (OITA AIRPORT , JP) observed 0400 UTC 13 December 2019
Temperature: 11.0°C (52°F)
Dewpoint: 2.0°C (36°F) [RH = 54%]
Pressure (altimeter): 30.30 inches Hg (1026.0 mb)
Winds: from the E (80 degrees) at 5 MPH (4 knots; 2.1 m/s)
Visibility: 6 or more miles (10+ km)
Ceiling: at least 12,000 feet AGL
Clouds: few clouds at 3000 feet AGL
Weather: no significant weather observed at this time

METAR text: RJFO 130300Z 04004KT 010V080 9999 FEW030 BKN/// 11/01 Q1027
Conditions at: RJFO (OITA AIRPORT , JP) observed 0300 UTC 13 December 2019
Temperature: 11.0°C (52°F)
Dewpoint: 1.0°C (34°F) [RH = 50%]
Pressure (altimeter): 30.32 inches Hg (1027.0 mb)
Winds: from the NE (40 degrees) at 5 MPH (4 knots; 2.1 m/s)
Visibility: 6 or more miles (10+ km)
Ceiling: at least 12,000 feet AGL
Clouds: few clouds at 3000 feet AGL
Weather: no significant weather observed at this time

METAR text: RJFO 130200Z 01003KT 280V060 9999 FEW030 SCT/// 11/// Q1028
Conditions at: RJFO (OITA AIRPORT , JP) observed 0200 UTC 13 December 2019
Temperature: missing
Dewpoint: missing
Pressure (altimeter): 30.35 inches Hg (1028.0 mb)
Winds: from the N (10 degrees) at 3 MPH (3 knots; 1.5 m/s)
Visibility: 6 or more miles (10+ km)
Ceiling: at least 12,000 feet AGL
Clouds: few clouds at 3000 feet AGL
Weather: no significant weather observed at this time

METAR text: RJFO 130100Z 35004KT 290V030 9999 FEW030 SCT/// 10/// Q1028
Conditions at: RJFO (OITA AIRPORT , JP) observed 0100 UTC 13 December 2019
Temperature: missing
Dewpoint: missing
Pressure (altimeter): 30.35 inches Hg (1028.0 mb)
Winds: from the N (350 degrees) at 5 MPH (4 knots; 2.1 m/s)
Visibility: 6 or more miles (10+ km)
Ceiling: at least 12,000 feet AGL
Clouds: few clouds at 3000 feet AGL
Weather: no significant weather observed at this time

METAR text: RJFO 130000Z 27003KT 240V310 9999 FEW005 09/// Q1028
Conditions at: RJFO (OITA AIRPORT , JP) observed 0000 UTC 13 December 2019
Temperature: missing
Dewpoint: missing
Pressure (altimeter): 30.35 inches Hg (1028.0 mb)
Winds: from the W (270 degrees) at 3 MPH (3 knots; 1.5 m/s)
Visibility: 6 or more miles (10+ km)
Ceiling: at least 12,000 feet AGL
Clouds: few clouds at 500 feet AGL
Weather: no significant weather observed at this time

METAR text: RJFO 122300Z 27006KT 220V290 9999 FEW030 06/// Q1028
Conditions at: RJFO (OITA AIRPORT , JP) observed 2300 UTC 12 December 2019
Temperature: missing
Dewpoint: missing
Pressure (altimeter): 30.35 inches Hg (1028.0 mb)
Winds: from the W (270 degrees) at 7 MPH (6 knots; 3.1 m/s)
Visibility: 6 or more miles (10+ km)
Ceiling: at least 12,000 feet AGL
Clouds: few clouds at 3000 feet AGL
Weather: no significant weather observed at this time

METAR text: RJFO 122200Z 27006KT 9999 FEW030 04/// Q1027
Conditions at: RJFO (OITA AIRPORT , JP) observed 2200 UTC 12 December 2019
Temperature: missing
Dewpoint: missing
Pressure (altimeter): 30.32 inches Hg (1027.0 mb)
Winds: from the W (270 degrees) at 7 MPH (6 knots; 3.1 m/s)
Visibility: 6 or more miles (10+ km)
Ceiling: at least 12,000 feet AGL
Clouds: few clouds at 3000 feet AGL
Weather: no significant weather observed at this time

METAR text: RJFO 121300Z 26005KT 9999 FEW030 SCT050 06/// Q1027
Conditions at: RJFO (OITA AIRPORT , JP) observed 1300 UTC 12 December 2019
Temperature: missing
Dewpoint: missing
Pressure (altimeter): 30.32 inches Hg (1027.0 mb)
Winds: from the W (260 degrees) at 6 MPH (5 knots; 2.6 m/s)
Visibility: 6 or more miles (10+ km)
Ceiling: at least 12,000 feet AGL
Clouds: few clouds at 3000 feet AGL
scattered clouds at 5000 feet AGL
Weather: no significant weather observed at this time

METAR text: RJFO 121200Z 28004KT 9999 FEW030 SCT050 06/// Q1027
Conditions at: RJFO (OITA AIRPORT , JP) observed 1200 UTC 12 December 2019
Temperature: missing
Dewpoint: missing
Pressure (altimeter): 30.32 inches Hg (1027.0 mb)
Winds: from the W (280 degrees) at 5 MPH (4 knots; 2.1 m/s)
Visibility: 6 or more miles (10+ km)
Ceiling: at least 12,000 feet AGL
Clouds: few clouds at 3000 feet AGL
scattered clouds at 5000 feet AGL
Weather: no significant weather observed at this time

METAR text: RJFO 121100Z 32004KT 9999 FEW030 06/// Q1026
Conditions at: RJFO (OITA AIRPORT , JP) observed 1100 UTC 12 December 2019
Temperature: missing
Dewpoint: missing
Pressure (altimeter): 30.30 inches Hg (1026.0 mb)
Winds: from the NW (320 degrees) at 5 MPH (4 knots; 2.1 m/s)
Visibility: 6 or more miles (10+ km)
Ceiling: at least 12,000 feet AGL
Clouds: few clouds at 3000 feet AGL
Weather: no significant weather observed at this time

METAR text: RJFO 121000Z 31005KT 9999 FEW030 07/// Q1026
Conditions at: RJFO (OITA AIRPORT , JP) observed 1000 UTC 12 December 2019
Temperature: missing
Dewpoint: missing
Pressure (altimeter): 30.30 inches Hg (1026.0 mb)
Winds: from the NW (310 degrees) at 6 MPH (5 knots; 2.6 m/s)
Visibility: 6 or more miles (10+ km)
Ceiling: at least 12,000 feet AGL
Clouds: few clouds at 3000 feet AGL
Weather: no significant weather observed at this time

METAR text: RJFO 120900Z 31008KT 9999 FEW040 08/// Q1025
Conditions at: RJFO (OITA AIRPORT , JP) observed 0900 UTC 12 December 2019
Temperature: missing
Dewpoint: missing
Pressure (altimeter): 30.27 inches Hg (1025.0 mb)
Winds: from the NW (310 degrees) at 9 MPH (8 knots; 4.1 m/s)
Visibility: 6 or more miles (10+ km)
Ceiling: at least 12,000 feet AGL
Clouds: few clouds at 4000 feet AGL
Weather: no significant weather observed at this time

METAR text: RJFO 120800Z 32010KT 9999 FEW040 09/// Q1024
Conditions at: RJFO (OITA AIRPORT , JP) observed 0800 UTC 12 December 2019
Temperature: missing
Dewpoint: missing
Pressure (altimeter): 30.24 inches Hg (1024.0 mb)
Winds: from the NW (320 degrees) at 12 MPH (10 knots; 5.1 m/s)
Visibility: 6 or more miles (10+ km)
Ceiling: at least 12,000 feet AGL
Clouds: few clouds at 4000 feet AGL
Weather: no significant weather observed at this time

METAR text: RJFO 120700Z 33012KT 9999 FEW030 10/// Q1024
Conditions at: RJFO (OITA AIRPORT , JP) observed 0700 UTC 12 December 2019
Temperature: missing
Dewpoint: missing
Pressure (altimeter): 30.24 inches Hg (1024.0 mb)
Winds: from the NNW (330 degrees) at 14 MPH (12 knots; 6.2 m/s)
Visibility: 6 or more miles (10+ km)
Ceiling: at least 12,000 feet AGL
Clouds: few clouds at 3000 feet AGL
Weather: no significant weather observed at this time

METAR text: RJFO 120600Z 33013KT 9999 FEW030 12/// Q1023
Conditions at: RJFO (OITA AIRPORT , JP) observed 0600 UTC 12 December 2019
Temperature: missing
Dewpoint: missing
Pressure (altimeter): 30.21 inches Hg (1023.0 mb)
Winds: from the NNW (330 degrees) at 15 MPH (13 knots; 6.7 m/s)
Visibility: 6 or more miles (10+ km)
Ceiling: at least 12,000 feet AGL
Clouds: few clouds at 3000 feet AGL
Weather: no significant weather observed at this time

METAR text: RJFO 120500Z 32013KT 9999 FEW030 11/M02 Q1023
Conditions at: RJFO (OITA AIRPORT , JP) observed 0500 UTC 12 December 2019
Temperature: 11.0°C (52°F)
Dewpoint: -2.0°C (28°F) [RH = 40%]
Pressure (altimeter): 30.21 inches Hg (1023.0 mb)
Winds: from the NW (320 degrees) at 15 MPH (13 knots; 6.7 m/s)
Visibility: 6 or more miles (10+ km)
Ceiling: at least 12,000 feet AGL
Clouds: few clouds at 3000 feet AGL
Weather: no significant weather observed at this time

METAR text: RJFO 120400Z 31013KT 280V340 9999 FEW030 SCT045 11/M00 Q1023
Conditions at: RJFO (OITA AIRPORT , JP) observed 0400 UTC 12 December 2019
Temperature: 11.0°C (52°F)
Dewpoint: 0.0°C (32°F) [RH = 47%]
Pressure (altimeter): 30.21 inches Hg (1023.0 mb)
Winds: from the NW (310 degrees) at 15 MPH (13 knots; 6.7 m/s)
Visibility: 6 or more miles (10+ km)
Ceiling: at least 12,000 feet AGL
Clouds: few clouds at 3000 feet AGL
scattered clouds at 4500 feet AGL
Weather: no significant weather observed at this time

METAR text: RJFO 120300Z 32010KT 280V360 9999 FEW020 BKN040 11/02 Q1023
Conditions at: RJFO (OITA AIRPORT , JP) observed 0300 UTC 12 December 2019
Temperature: 11.0°C (52°F)
Dewpoint: 2.0°C (36°F) [RH = 54%]
Pressure (altimeter): 30.21 inches Hg (1023.0 mb)
Winds: from the NW (320 degrees) at 12 MPH (10 knots; 5.1 m/s)
Visibility: 6 or more miles (10+ km)
Ceiling: 4000 feet AGL
Clouds: few clouds at 2000 feet AGL
broken clouds at 4000 feet AGL
Weather: no significant weather observed at this time

METAR text: RJFO 120200Z 33013KT 9999 FEW020 BKN040 11/02 Q1024
Conditions at: RJFO (OITA AIRPORT , JP) observed 0200 UTC 12 December 2019
Temperature: 11.0°C (52°F)
Dewpoint: 2.0°C (36°F) [RH = 54%]
Pressure (altimeter): 30.24 inches Hg (1024.0 mb)
Winds: from the NNW (330 degrees) at 15 MPH (13 knots; 6.7 m/s)
Visibility: 6 or more miles (10+ km)
Ceiling: 4000 feet AGL
Clouds: few clouds at 2000 feet AGL
broken clouds at 4000 feet AGL
Weather: no significant weather observed at this time

Forecast for: RJFO (OITA AIRPORT , JP)
Text: TAF RJFO 131109Z 1312/1418 24004KT 9999 FEW030 BKN045
Forecast period: 1200 UTC 13 December 2019 to 0000 UTC 14 December 2019
Forecast type: FROM: standard forecast or significant change
Winds: from the WSW (240 degrees) at 5 MPH (4 knots; 2.1 m/s)
Visibility: 6 or more miles 10+ km)
Ceiling: 4500 feet AGL
Clouds: few clouds at 3000 feet AGL
broken clouds at 4500 feet AGL
Weather: no significant weather forecast for this period
Text: BECMG 1400/1403 34010KT
Forecast period: 0000 to 1800 UTC 14 December 2019
Forecast type: BECOMING: Conditions expected to become as follows by 0300 UTC 14 December 2019
Winds: from the NNW (340 degrees) at 12 MPH (10 knots; 5.1 m/s)
Visibility: 6 or more miles 10+ km)
Ceiling: 4500 feet AGL
Clouds: few clouds at 3000 feet AGL
broken clouds at 4500 feet AGL
Weather: no significant weather forecast for this period